createdAt,value
2018-04-08T00:00:24.810Z,36.03
2018-04-08T00:02:52.582Z,36.60
2018-04-08T00:05:20.375Z,34.55
2018-04-08T00:07:48.210Z,34.97
2018-04-08T00:10:16.009Z,36.40
2018-04-08T00:12:43.810Z,36.42
2018-04-08T00:15:11.643Z,32.03
2018-04-08T00:17:40.188Z,34.92
2018-04-08T00:20:08.028Z,38.63
2018-04-08T00:22:35.863Z,35.22
2018-04-08T00:25:05.196Z,36.10
2018-04-08T00:27:32.963Z,34.25
2018-04-08T00:30:00.788Z,37.42
2018-04-08T00:32:29.323Z,36.85
2018-04-08T00:34:57.211Z,34.20
2018-04-08T00:37:25.036Z,41.92
2018-04-08T00:39:52.822Z,36.17
2018-04-08T00:42:20.655Z,33.08
2018-04-08T00:44:48.809Z,35.33
2018-04-08T00:47:16.587Z,36.33
2018-04-08T00:49:44.441Z,35.13
2018-04-08T00:52:12.325Z,34.25
2018-04-08T00:54:40.118Z,41.60
2018-04-08T00:57:08.659Z,40.88
2018-04-08T00:59:36.490Z,34.28
2018-04-08T01:02:05.042Z,33.78
2018-04-08T01:04:32.820Z,39.25
2018-04-08T01:07:01.677Z,38.65
2018-04-08T01:09:30.344Z,37.05
2018-04-08T01:11:58.114Z,37.13
2018-04-08T01:14:25.977Z,35.95
2018-04-08T01:16:54.578Z,37.25
2018-04-08T01:19:22.386Z,32.72
2018-04-08T01:21:50.849Z,34.85
2018-04-08T01:24:19.387Z,34.70
2018-04-08T01:26:47.154Z,43.85
2018-04-08T01:29:14.988Z,36.00
2018-04-08T01:31:42.781Z,39.15
2018-04-08T01:34:10.569Z,35.58
2018-04-08T01:36:38.478Z,38.63
2018-04-08T01:39:07.226Z,37.45
2018-04-08T01:41:35.807Z,40.22
2018-04-08T01:44:04.859Z,37.60
2018-04-08T01:46:32.645Z,31.23
2018-04-08T01:49:01.209Z,40.10
2018-04-08T01:51:29.024Z,39.72
2018-04-08T01:53:56.791Z,39.13
2018-04-08T01:56:24.567Z,33.45
2018-04-08T01:58:52.396Z,42.67
2018-04-08T02:01:20.982Z,36.55
2018-04-08T02:03:48.860Z,38.80
2018-04-08T02:06:16.717Z,42.90
2018-04-08T02:08:44.502Z,43.97
2018-04-08T02:11:12.266Z,45.60
2018-04-08T02:13:40.108Z,37.65
2018-04-08T02:16:07.886Z,34.67
2018-04-08T02:18:35.698Z,39.83
2018-04-08T02:21:04.315Z,46.60
2018-04-08T02:23:32.080Z,44.28
2018-04-08T02:25:59.991Z,40.20
2018-04-08T02:28:27.839Z,43.25
2018-04-08T02:30:55.637Z,41.17
2018-04-08T02:33:24.171Z,34.45
2018-04-08T02:35:52.119Z,38.05
2018-04-08T02:38:19.913Z,42.80
2018-04-08T02:40:47.683Z,45.00
2018-04-08T02:43:15.504Z,35.30
2018-04-08T02:45:43.271Z,37.00
2018-04-08T02:48:11.064Z,41.00
2018-04-08T02:50:38.919Z,44.85
2018-04-08T02:53:06.702Z,42.20
2018-04-08T02:55:34.467Z,36.25
2018-04-08T02:58:02.291Z,40.00
2018-04-08T03:00:30.057Z,40.12
2018-04-08T03:02:57.848Z,34.30
2018-04-08T03:05:25.698Z,37.88
2018-04-08T03:07:53.480Z,41.05
2018-04-08T03:10:21.271Z,34.58
2018-04-08T03:12:49.868Z,39.42
2018-04-08T03:15:17.688Z,36.47
2018-04-08T03:17:45.449Z,35.65
2018-04-08T03:20:13.304Z,34.80
2018-04-08T03:22:41.075Z,35.50
2018-04-08T03:25:08.872Z,31.42
2018-04-08T03:27:36.724Z,30.55
2018-04-08T03:30:05.264Z,38.63
2018-04-08T03:32:33.060Z,31.08
2018-04-08T03:35:01.677Z,35.95
2018-04-08T03:37:29.455Z,30.35
2018-04-08T03:39:57.237Z,33.22
2018-04-08T03:42:25.279Z,31.33
2018-04-08T03:44:53.051Z,34.90
2018-04-08T03:47:20.825Z,34.53
2018-04-08T03:49:48.634Z,32.90
2018-04-08T03:52:16.433Z,36.30
2018-04-08T03:54:44.218Z,34.97
2018-04-08T03:57:12.067Z,36.53
2018-04-08T03:59:39.879Z,30.37
2018-04-08T04:02:08.419Z,41.22
2018-04-08T04:04:36.263Z,32.88
2018-04-08T04:07:04.069Z,33.05
2018-04-08T04:09:31.950Z,30.80
2018-04-08T04:12:00.568Z,34.58
2018-04-08T04:14:28.386Z,36.38
2018-04-08T04:16:56.939Z,32.78
2018-04-08T04:19:36.543Z,33.58
2018-04-08T04:22:16.107Z,33.20
2018-04-08T04:25:02.635Z,30.23
2018-04-08T04:27:30.423Z,27.45
2018-04-08T04:29:58.192Z,27.67
2018-04-08T04:32:26.036Z,24.30
2018-04-08T04:34:53.833Z,28.40
2018-04-08T04:37:21.625Z,26.67
2018-04-08T04:39:49.452Z,26.95
2018-04-08T04:42:17.213Z,23.27
2018-04-08T04:44:44.988Z,27.15
2018-04-08T04:47:12.807Z,27.62
2018-04-08T04:49:40.636Z,20.08
2018-04-08T04:52:08.400Z,23.98
2018-04-08T04:54:36.236Z,20.15
2018-04-08T04:57:04.023Z,18.25
2018-04-08T04:59:31.802Z,20.75
2018-04-08T05:01:59.648Z,18.73
2018-04-08T05:04:27.439Z,18.58
2018-04-08T05:06:55.218Z,14.75
2018-04-08T05:09:23.540Z,17.60
2018-04-08T05:11:51.311Z,19.70
2018-04-08T05:14:19.874Z,20.70
2018-04-08T05:16:47.728Z,16.15
2018-04-08T05:19:15.524Z,17.35
2018-04-08T05:21:43.311Z,18.20
2018-04-08T05:24:11.172Z,17.90
2018-04-08T05:26:38.955Z,14.52
2018-04-08T05:29:07.507Z,13.85
2018-04-08T05:31:35.376Z,15.95
2018-04-08T05:34:03.168Z,11.85
2018-04-08T05:36:30.953Z,12.88
2018-04-08T05:38:58.810Z,12.90
2018-04-08T05:41:26.593Z,11.10
2018-04-08T05:43:55.132Z,10.52
2018-04-08T05:46:23.737Z,11.77
2018-04-08T05:48:51.547Z,11.35
2018-04-08T05:51:19.320Z,11.80
2018-04-08T05:53:47.922Z,15.60
2018-04-08T05:56:15.712Z,12.55
2018-04-08T05:58:43.495Z,12.98
2018-04-08T06:01:11.324Z,12.93
2018-04-08T06:03:39.109Z,11.73
2018-04-08T06:06:06.916Z,12.45
2018-04-08T06:08:35.555Z,13.57
2018-04-08T06:11:03.329Z,12.13
2018-04-08T06:13:31.875Z,10.63
2018-04-08T06:15:59.768Z,11.32
2018-04-08T06:18:27.573Z,12.18
2018-04-08T06:20:56.131Z,11.23
2018-04-08T06:23:23.959Z,12.13
2018-04-08T06:25:51.768Z,14.18
2018-04-08T06:28:19.555Z,10.77
2018-04-08T06:30:48.163Z,11.02
2018-04-08T06:33:16.011Z,10.88
2018-04-08T06:35:43.889Z,11.80
2018-04-08T06:38:11.781Z,10.52
2018-04-08T06:40:39.591Z,11.50
2018-04-08T06:43:08.222Z,11.73
2018-04-08T06:45:36.075Z,10.70
2018-04-08T06:48:03.943Z,10.73
2018-04-08T06:50:31.807Z,10.70
2018-04-08T06:52:59.653Z,10.07
2018-04-08T06:55:27.441Z,11.02
2018-04-08T06:57:55.256Z,9.68
2018-04-08T07:00:23.092Z,9.60
2018-04-08T07:02:50.939Z,9.68
2018-04-08T07:05:18.750Z,9.82
2018-04-08T07:07:46.593Z,9.80
2018-04-08T07:10:15.193Z,10.35
2018-04-08T07:12:42.969Z,10.15
2018-04-08T07:15:10.815Z,11.40
2018-04-08T07:17:39.356Z,10.60
2018-04-08T07:20:07.167Z,12.68
2018-04-08T07:22:35.166Z,10.75
2018-04-08T07:25:02.948Z,11.77
2018-04-08T07:27:30.726Z,11.10
2018-04-08T07:29:58.575Z,11.50
2018-04-08T07:32:26.371Z,12.07
2018-04-08T07:34:54.936Z,10.82
2018-04-08T07:37:23.535Z,11.15
2018-04-08T07:39:52.116Z,11.55
2018-04-08T07:42:20.696Z,11.30
2018-04-08T07:44:48.585Z,12.43
2018-04-08T07:47:16.395Z,12.90
2018-04-08T07:49:44.206Z,12.82
2018-04-08T07:52:12.093Z,12.73
2018-04-08T07:54:39.936Z,12.43
2018-04-08T07:57:07.758Z,13.48
2018-04-08T07:59:36.411Z,11.60
2018-04-08T08:02:04.696Z,11.43
2018-04-08T08:04:33.280Z,11.45
2018-04-08T08:07:01.130Z,10.10
2018-04-08T08:09:28.958Z,10.80
2018-04-08T08:11:56.751Z,11.60
2018-04-08T08:14:24.584Z,9.00
2018-04-08T08:16:52.389Z,9.68
2018-04-08T08:19:20.194Z,10.10
2018-04-08T08:21:48.037Z,9.15
2018-04-08T08:24:16.599Z,8.90
2018-04-08T08:26:44.379Z,11.23
2018-04-08T08:29:12.979Z,9.63
2018-04-08T08:31:41.550Z,10.43
2018-04-08T08:34:10.152Z,10.38
2018-04-08T08:36:38.054Z,9.88
2018-04-08T08:39:05.859Z,8.70
2018-04-08T08:41:34.400Z,10.63
2018-04-08T08:44:02.301Z,9.93
2018-04-08T08:46:30.845Z,10.65
2018-04-08T08:48:58.745Z,10.13
2018-04-08T08:51:27.349Z,8.55
2018-04-08T08:53:55.134Z,8.68
2018-04-08T08:56:22.938Z,9.02
2018-04-08T08:58:50.777Z,8.98
2018-04-08T09:01:18.615Z,10.10
2018-04-08T09:03:46.408Z,9.10
2018-04-08T09:06:14.260Z,10.70
2018-04-08T09:08:42.099Z,9.77
2018-04-08T09:11:09.877Z,10.68
2018-04-08T09:13:44.736Z,8.77
2018-04-08T09:16:13.201Z,9.10
2018-04-08T09:18:42.589Z,10.73
2018-04-08T09:21:16.040Z,10.10
2018-04-08T09:23:44.710Z,10.15
2018-04-08T09:26:13.292Z,10.00
2018-04-08T09:28:41.932Z,11.02
2018-04-08T09:31:10.631Z,11.60
2018-04-08T09:33:38.530Z,10.63
2018-04-08T09:36:06.362Z,12.93
2018-04-08T09:38:34.235Z,10.95
2018-04-08T09:41:02.044Z,11.18
2018-04-08T09:43:30.705Z,12.45
2018-04-08T09:46:00.030Z,12.52
2018-04-08T09:48:28.025Z,11.48
2018-04-08T09:50:56.719Z,10.88
2018-04-08T09:53:24.576Z,12.13
2018-04-08T09:55:52.441Z,10.20
2018-04-08T09:58:20.291Z,10.30
2018-04-08T10:14:14.311Z,10.57
2018-04-08T10:16:42.222Z,11.32
2018-04-08T10:19:10.293Z,10.30
2018-04-08T10:21:38.848Z,10.02
2018-04-08T10:24:06.919Z,12.37
2018-04-08T10:26:35.754Z,11.00
2018-04-08T10:29:04.928Z,11.85
2018-04-08T10:31:32.842Z,11.60
2018-04-08T10:34:00.992Z,10.50
2018-04-08T10:36:29.295Z,10.45
2018-04-08T10:38:57.183Z,11.07
2018-04-08T10:41:25.086Z,13.05
2018-04-08T10:43:54.477Z,10.63
2018-04-08T10:46:23.123Z,10.00
2018-04-08T10:48:52.128Z,10.82
2018-04-08T10:51:25.338Z,11.50
2018-04-08T10:53:53.409Z,9.77
2018-04-08T10:56:22.079Z,12.35
2018-04-08T10:58:50.911Z,11.07
2018-04-08T11:01:18.951Z,9.93
2018-04-08T11:03:48.141Z,11.73
2018-04-08T11:06:16.460Z,11.52
2018-04-08T11:08:44.334Z,9.32
2018-04-08T11:11:12.292Z,9.48
2018-04-08T11:13:40.368Z,8.88
2018-04-08T11:16:08.524Z,9.00
2018-04-08T11:18:38.368Z,10.20
2018-04-08T11:21:06.223Z,9.00
2018-04-08T11:23:34.098Z,12.02
2018-04-08T11:26:02.050Z,12.57
2018-04-08T11:28:30.885Z,10.30
2018-04-08T11:31:00.267Z,9.63
2018-04-08T11:33:28.923Z,9.57
2018-04-08T11:35:56.762Z,10.23
2018-04-08T11:38:24.621Z,9.13
2018-04-08T11:40:52.512Z,10.27
2018-04-08T11:43:20.328Z,8.95
2018-04-08T11:45:51.730Z,8.63
2018-04-08T11:48:21.354Z,9.60
2018-04-08T11:50:49.236Z,9.98
2018-04-08T11:53:17.023Z,8.50
2018-04-08T11:55:45.671Z,9.13
2018-04-08T11:58:13.551Z,8.70
2018-04-08T12:00:43.356Z,9.45
2018-04-08T12:03:11.267Z,8.50
2018-04-08T12:05:39.175Z,8.02
2018-04-08T12:08:07.047Z,9.13
2018-04-08T12:10:36.141Z,7.05
2018-04-08T12:13:04.067Z,6.15
2018-04-08T12:15:31.856Z,7.47
2018-04-08T12:18:00.563Z,7.57
2018-04-08T12:20:28.903Z,6.78
2018-04-08T12:22:56.751Z,9.00
2018-04-08T12:25:24.677Z,8.35
2018-04-08T12:27:54.207Z,7.05
2018-04-08T12:30:22.074Z,6.75
2018-04-08T12:32:49.966Z,10.15
2018-04-08T12:35:17.755Z,8.82
2018-04-08T12:37:45.541Z,7.45
2018-04-08T12:40:14.167Z,7.00
2018-04-08T12:42:43.511Z,7.45
2018-04-08T12:45:12.080Z,7.57
2018-04-08T12:47:39.942Z,9.15
2018-04-08T12:50:07.748Z,8.52
2018-04-08T12:52:35.596Z,6.87
2018-04-08T12:55:05.501Z,6.72
2018-04-08T12:57:33.508Z,8.15
2018-04-08T13:00:01.982Z,8.18
2018-04-08T13:02:30.834Z,8.32
2018-04-08T13:05:00.596Z,8.35
2018-04-08T13:07:28.431Z,10.00
2018-04-08T13:09:56.313Z,8.27
2018-04-08T13:12:24.122Z,9.05
2018-04-08T13:14:53.926Z,9.35
2018-04-08T13:17:23.652Z,8.45
2018-04-08T13:19:51.898Z,10.05
2018-04-08T13:22:19.685Z,8.40
2018-04-08T13:24:48.752Z,15.80
2018-04-08T13:27:16.529Z,9.23
2018-04-08T13:29:45.118Z,9.55
2018-04-08T13:32:13.712Z,9.43
2018-04-08T13:34:42.386Z,9.57
2018-04-08T13:37:10.205Z,10.23
2018-04-08T13:39:38.118Z,9.13
2018-04-08T13:42:06.467Z,9.85
2018-04-08T13:44:34.536Z,10.45
2018-04-08T13:47:02.486Z,9.15
2018-04-08T13:49:30.343Z,12.65
2018-04-08T13:51:58.138Z,13.52
2018-04-08T13:54:26.180Z,11.12
2018-04-08T13:56:53.989Z,10.10
2018-04-08T13:59:22.605Z,10.40
2018-04-08T14:01:50.489Z,10.10
2018-04-08T14:04:18.305Z,9.05
2018-04-08T14:06:46.938Z,10.60
2018-04-08T14:09:14.886Z,9.35
2018-04-08T14:11:42.750Z,8.80
2018-04-08T14:14:10.588Z,8.95
2018-04-08T14:16:38.455Z,9.75
2018-04-08T14:19:06.287Z,10.93
2018-04-08T14:21:34.857Z,9.02
2018-04-08T14:24:03.517Z,8.70
2018-04-08T14:26:31.364Z,9.43
2018-04-08T14:28:59.197Z,7.57
2018-04-08T14:31:27.735Z,8.32
2018-04-08T14:33:55.525Z,7.80
2018-04-08T14:36:24.074Z,9.88
2018-04-08T14:38:52.668Z,7.12
2018-04-08T14:41:21.114Z,8.13
2018-04-08T14:43:49.641Z,7.70
2018-04-08T14:46:18.259Z,7.53
2018-04-08T14:48:46.039Z,8.07
2018-04-08T14:51:13.840Z,8.05
2018-04-08T14:53:41.707Z,7.80
2018-04-08T14:56:09.485Z,6.75
2018-04-08T14:58:38.022Z,9.20
2018-04-08T15:01:05.874Z,8.48
2018-04-08T15:03:33.631Z,7.37
2018-04-08T15:06:01.469Z,10.13
2018-04-08T15:08:29.320Z,7.07
2018-04-08T15:10:57.865Z,7.15
2018-04-08T15:13:25.703Z,6.72
2018-04-08T15:15:53.577Z,8.45
2018-04-08T15:18:21.363Z,7.30
2018-04-08T15:20:49.140Z,8.18
2018-04-08T15:23:17.763Z,6.90
2018-04-08T15:25:45.550Z,6.60
2018-04-08T15:28:13.312Z,5.70
2018-04-08T15:30:41.145Z,6.30
2018-04-08T15:33:08.946Z,11.02
2018-04-08T15:35:36.719Z,6.62
2018-04-08T15:38:04.544Z,7.05
2018-04-08T15:40:32.988Z,7.55
2018-04-08T15:43:01.581Z,7.43
2018-04-08T15:45:29.416Z,8.68
2018-04-08T15:47:57.198Z,6.35
2018-04-08T15:50:25.747Z,8.18
2018-04-08T15:52:53.581Z,8.65
2018-04-08T15:55:21.354Z,8.70
2018-04-08T15:57:49.144Z,6.47
2018-04-08T16:00:16.982Z,7.12
2018-04-08T16:02:44.774Z,5.78
2018-04-08T16:05:13.333Z,6.50
2018-04-08T16:07:41.179Z,7.07
2018-04-08T16:10:08.945Z,8.80
2018-04-08T16:12:36.740Z,6.53
2018-04-08T16:15:04.571Z,7.18
2018-04-08T16:17:32.349Z,7.78
2018-04-08T16:20:00.167Z,18.48
2018-04-08T16:22:28.080Z,8.50
2018-04-08T16:24:55.854Z,9.25
2018-04-08T16:27:24.406Z,8.95
2018-04-08T16:29:52.235Z,8.18
2018-04-08T16:32:20.014Z,8.40
2018-04-08T16:34:47.822Z,7.90
2018-04-08T16:37:15.872Z,8.23
2018-04-08T16:39:43.667Z,7.80
2018-04-08T16:42:12.212Z,9.13
2018-04-08T16:44:40.046Z,10.27
2018-04-08T16:47:07.838Z,8.05
2018-04-08T16:49:35.610Z,8.02
2018-04-08T16:52:03.445Z,8.40
2018-04-08T16:54:31.222Z,9.60
2018-04-08T16:56:59.050Z,8.50
2018-04-08T16:59:26.941Z,11.38
2018-04-08T17:01:54.769Z,9.73
2018-04-08T17:04:23.655Z,10.52
2018-04-08T17:06:51.486Z,8.88
2018-04-08T17:09:19.263Z,8.73
2018-04-08T17:11:47.920Z,9.43
2018-04-08T17:14:16.181Z,10.05
2018-04-08T17:16:43.966Z,8.25
2018-04-08T17:19:11.774Z,8.27
2018-04-08T17:21:39.615Z,8.82
2018-04-08T17:24:08.229Z,11.30
2018-04-08T17:26:36.054Z,8.77
2018-04-08T17:29:04.739Z,8.85
2018-04-08T17:31:33.474Z,8.13
2018-04-08T17:34:01.291Z,8.52
2018-04-08T17:36:30.849Z,8.43
2018-04-08T17:38:58.677Z,9.02
2018-04-08T17:41:26.479Z,9.38
2018-04-08T17:43:55.992Z,11.15
2018-04-08T17:46:24.571Z,10.77
2018-04-08T17:48:52.384Z,11.88
2018-04-08T17:51:20.588Z,11.93
2018-04-08T17:53:48.382Z,12.68
2018-04-08T17:56:16.207Z,11.70
2018-04-08T17:58:44.104Z,15.27
2018-04-08T18:01:11.942Z,13.23
2018-04-08T18:03:39.808Z,14.32
2018-04-08T18:06:08.435Z,13.68
2018-04-08T18:08:36.975Z,14.73
2018-04-08T18:11:04.779Z,16.00
2018-04-08T18:13:33.533Z,17.92
2018-04-08T18:16:02.526Z,15.93
2018-04-08T18:18:30.295Z,17.27
2018-04-08T18:20:58.118Z,13.65
2018-04-08T18:23:25.892Z,14.80
2018-04-08T18:25:53.660Z,14.25
2018-04-08T18:28:21.495Z,13.20
2018-04-08T18:30:49.267Z,13.38
2018-04-08T18:33:17.115Z,11.73
2018-04-08T18:35:44.946Z,12.63
2018-04-08T18:38:12.725Z,13.35
2018-04-08T18:40:41.270Z,16.75
2018-04-08T18:43:09.115Z,15.80
2018-04-08T18:45:36.893Z,11.82
2018-04-08T18:48:04.699Z,16.50
2018-04-08T18:50:34.060Z,12.55
2018-04-08T18:53:01.840Z,13.00
2018-04-08T18:55:30.393Z,11.80
2018-04-08T18:57:58.221Z,14.68
2018-04-08T19:00:26.050Z,9.80
2018-04-08T19:02:54.611Z,10.20
2018-04-08T19:05:22.470Z,11.80
2018-04-08T19:07:50.257Z,11.80
2018-04-08T19:10:18.832Z,10.73
2018-04-08T19:12:47.462Z,13.32
2018-04-08T19:15:20.830Z,12.15
2018-04-08T19:17:55.017Z,11.70
2018-04-08T19:20:22.797Z,13.98
2018-04-08T19:22:51.351Z,12.32
2018-04-08T19:25:19.190Z,15.73
2018-04-08T19:27:46.966Z,14.23
2018-04-08T19:30:21.079Z,15.60
2018-04-08T19:32:48.880Z,14.15
2018-04-08T19:35:16.698Z,14.87
2018-04-08T19:37:45.340Z,17.17
2018-04-08T19:40:13.218Z,14.93
2018-04-08T19:42:40.997Z,20.62
2018-04-08T19:45:08.927Z,15.00
2018-04-08T19:47:36.710Z,13.52
2018-04-08T19:50:04.549Z,16.75
2018-04-08T19:52:32.951Z,17.42
2018-04-08T19:55:00.732Z,13.45
2018-04-08T19:57:28.529Z,13.15
2018-04-08T19:59:57.143Z,14.27
2018-04-08T20:02:24.931Z,13.68
2018-04-08T20:04:52.710Z,17.67
2018-04-08T20:07:20.556Z,16.12
2018-04-08T20:09:48.333Z,17.35
2018-04-08T20:12:16.111Z,13.77
2018-04-08T20:14:43.959Z,17.10
2018-04-08T20:17:11.756Z,16.60
2018-04-08T20:19:40.338Z,16.87
2018-04-08T20:22:08.955Z,17.87
2018-04-08T20:24:36.737Z,15.63
2018-04-08T20:27:04.523Z,23.77
2018-04-08T20:29:32.351Z,16.80
2018-04-08T20:32:00.136Z,26.45
2018-04-08T20:34:28.019Z,18.90
2018-04-08T20:36:55.846Z,21.10
2018-04-08T20:39:23.672Z,19.00
2018-04-08T20:41:51.440Z,18.48
2018-04-08T20:44:19.281Z,20.70
2018-04-08T20:46:47.839Z,19.25
2018-04-08T20:49:15.722Z,22.67
2018-04-08T20:51:44.320Z,17.98
2018-04-08T20:54:12.110Z,21.98
2018-04-08T20:56:39.875Z,20.58
2018-04-08T20:59:07.755Z,20.20
2018-04-08T21:01:35.530Z,28.70
2018-04-08T21:04:03.299Z,19.50
2018-04-08T21:06:31.166Z,20.85
2018-04-08T21:08:58.956Z,17.80
2018-04-08T21:11:28.204Z,17.17
2018-04-08T21:13:56.049Z,20.58
2018-04-08T21:16:23.815Z,20.67
2018-04-08T21:18:51.587Z,26.25
2018-04-08T21:21:19.442Z,20.08
2018-04-08T21:23:47.231Z,18.70
2018-04-08T21:26:15.014Z,19.83
2018-04-08T21:28:43.620Z,16.60
2018-04-08T21:31:11.426Z,15.40
2018-04-08T21:33:39.204Z,21.15
2018-04-08T21:36:07.026Z,17.67
2018-04-08T21:38:34.806Z,17.50
2018-04-08T21:41:02.573Z,24.25
2018-04-08T21:43:30.426Z,24.10
2018-04-08T21:45:58.203Z,20.70
2018-04-08T21:48:25.991Z,18.95
2018-04-08T21:50:54.597Z,16.27
2018-04-08T21:53:22.381Z,16.02
2018-04-08T21:55:50.144Z,16.87
2018-04-08T21:58:18.009Z,19.98
2018-04-08T22:00:45.818Z,16.17
2018-04-08T22:03:13.599Z,21.27
2018-04-08T22:05:42.216Z,17.27
2018-04-08T22:08:09.999Z,18.65
2018-04-08T22:10:37.779Z,19.20
2018-04-08T22:13:05.632Z,17.30
2018-04-08T22:15:34.174Z,16.58
2018-04-08T22:18:01.958Z,17.10
2018-04-08T22:20:29.778Z,18.65
2018-04-08T22:22:58.341Z,16.25
2018-04-08T22:25:26.152Z,15.55
2018-04-08T22:27:53.982Z,16.23
2018-04-08T22:30:22.527Z,14.82
2018-04-08T22:32:50.307Z,16.02
2018-04-08T22:35:18.158Z,17.30
2018-04-08T22:37:46.707Z,17.10
2018-04-08T22:40:14.467Z,14.23
2018-04-08T22:42:42.326Z,16.73
2018-04-08T22:45:10.095Z,16.48
2018-04-08T22:47:37.887Z,13.62
2018-04-08T22:50:05.705Z,15.10
2018-04-08T22:52:33.494Z,13.52
2018-04-08T22:55:01.278Z,13.20
2018-04-08T22:57:29.103Z,14.40
2018-04-08T22:59:56.876Z,15.40
2018-04-08T23:02:24.648Z,14.95
2018-04-08T23:04:52.489Z,13.20
2018-04-08T23:07:20.263Z,21.42
2018-04-08T23:09:48.048Z,13.25
2018-04-08T23:12:15.865Z,15.40
2018-04-08T23:14:43.640Z,13.98
2018-04-08T23:17:11.441Z,17.92
2018-04-08T23:19:39.285Z,14.35
2018-04-08T23:22:07.117Z,13.57
2018-04-08T23:24:34.904Z,15.38
2018-04-08T23:27:02.761Z,13.80
2018-04-08T23:29:30.538Z,13.45
2018-04-08T23:31:58.310Z,11.77
2018-04-08T23:34:26.138Z,10.27
2018-04-08T23:36:53.906Z,19.62
2018-04-08T23:39:21.720Z,15.18
2018-04-08T23:41:49.591Z,14.05
2018-04-08T23:44:17.387Z,12.60
2018-04-08T23:46:45.145Z,12.48
2018-04-08T23:49:12.970Z,10.07
2018-04-08T23:51:40.735Z,13.25
2018-04-08T23:54:08.531Z,12.68
2018-04-08T23:56:36.364Z,12.10
2018-04-08T23:59:04.127Z,11.50
